createdAt,value
2019-04-26T00:03:16.250Z,55.33
2019-04-26T00:08:17.976Z,55.32
2019-04-26T00:13:20.244Z,55.08
2019-04-26T00:18:22.710Z,55.45
2019-04-26T00:23:25.171Z,56.01
2019-04-26T00:28:27.642Z,56.74
2019-04-26T00:33:30.104Z,57.07
2019-04-26T00:38:32.559Z,57.35
2019-04-26T00:43:35.015Z,58.09
2019-04-26T00:48:37.468Z,58.37
2019-04-26T00:53:39.940Z,58.54
2019-04-26T00:58:42.413Z,58.99
2019-04-26T01:03:44.873Z,59.28
2019-04-26T01:08:47.340Z,59.39
2019-04-26T01:13:49.814Z,60.12
2019-04-26T01:18:52.270Z,60.02
2019-04-26T01:23:54.719Z,60.18
2019-04-26T01:29:06.240Z,60.58
2019-04-26T01:34:08.700Z,60.94
2019-04-26T01:39:17.146Z,61.32
2019-04-26T01:44:20.199Z,61.61
2019-04-26T01:49:22.343Z,61.52
2019-04-26T01:54:25.695Z,61.40
2019-04-26T01:59:27.428Z,61.91
2019-04-26T02:04:29.919Z,62.17
2019-04-26T02:09:32.764Z,62.28
2019-04-26T02:14:34.333Z,62.55
2019-04-26T02:19:36.786Z,62.56
2019-04-26T02:24:39.241Z,62.66
2019-04-26T02:29:41.699Z,62.44
2019-04-26T02:34:44.141Z,62.33
2019-04-26T02:39:46.603Z,61.96
2019-04-26T02:44:49.058Z,61.20
2019-04-26T02:49:51.518Z,61.13
2019-04-26T02:54:56.659Z,61.81
2019-04-26T02:59:59.109Z,61.35
2019-04-26T03:05:01.570Z,61.61
2019-04-26T03:10:04.034Z,61.65
2019-04-26T03:15:24.770Z,61.63
2019-04-26T03:20:32.566Z,61.66
2019-04-26T03:25:33.336Z,60.83
2019-04-26T03:30:51.328Z,61.41
2019-04-26T03:35:57.172Z,61.88
2019-04-26T03:40:58.352Z,61.44
2019-04-26T03:46:22.490Z,61.31
2019-04-26T03:51:41.227Z,60.79
2019-04-26T03:56:45.489Z,61.46
2019-04-26T04:01:53.573Z,61.09
2019-04-26T04:07:03.823Z,61.13
2019-04-26T04:12:11.295Z,61.73
2019-04-26T04:17:03.692Z,61.94
2019-04-26T04:22:14.921Z,61.80
2019-04-26T04:27:23.428Z,62.63
2019-04-26T04:32:25.899Z,62.73
2019-04-26T04:37:28.349Z,63.05
2019-04-26T04:42:50.336Z,63.26
2019-04-26T04:48:21.523Z,63.94
2019-04-26T04:53:49.591Z,64.53
2019-04-26T04:58:50.592Z,64.71
2019-04-26T05:04:14.390Z,65.13
2019-04-26T05:09:28.915Z,65.19
2019-04-26T05:14:34.327Z,65.20
2019-04-26T05:19:48.852Z,65.44
2019-04-26T05:25:06.432Z,66.00
2019-04-26T05:30:08.909Z,66.79
2019-04-26T05:35:14.230Z,66.87
2019-04-26T05:40:38.331Z,68.01
2019-04-26T05:45:40.788Z,67.92
2019-04-26T05:51:07.413Z,67.87
2019-04-26T05:56:46.492Z,68.48
2019-04-26T06:02:01.092Z,68.33
2019-04-26T06:07:29.663Z,68.88
2019-04-26T06:12:44.056Z,68.57
2019-04-26T06:18:04.197Z,68.51
2019-04-26T06:23:12.582Z,67.72
2019-04-26T06:28:15.034Z,67.36
2019-04-26T06:33:29.733Z,67.02
2019-04-26T06:38:50.399Z,67.35
2019-04-26T06:44:05.131Z,67.20
2019-04-26T06:49:10.691Z,66.32
2019-04-26T06:54:31.110Z,66.70
2019-04-26T06:59:51.705Z,66.37
2019-04-26T07:05:06.976Z,66.68
2019-04-26T07:10:17.357Z,66.34
2019-04-26T07:15:32.147Z,65.44
2019-04-26T07:20:34.725Z,65.18
2019-04-26T07:25:55.475Z,65.06
2019-04-26T07:31:08.237Z,66.70
2019-04-26T07:36:30.772Z,67.63
2019-04-26T07:41:57.402Z,67.11
2019-04-26T07:47:05.942Z,67.18
2019-04-26T07:52:26.189Z,66.14
2019-04-26T07:58:03.622Z,66.42
2019-04-26T08:03:13.586Z,66.59
2019-04-26T08:08:18.721Z,66.21
2019-04-26T08:13:21.178Z,65.64
2019-04-26T08:18:23.654Z,65.07
2019-04-26T08:23:38.478Z,64.49
2019-04-26T08:28:28.575Z,64.28
2019-04-26T08:33:31.031Z,64.67
2019-04-26T08:38:33.493Z,64.81
2019-04-26T08:43:48.260Z,64.97
2019-04-26T08:48:53.597Z,64.24
2019-04-26T08:53:56.063Z,64.22
2019-04-26T08:58:58.512Z,64.11
2019-04-26T09:04:00.987Z,62.79
2019-04-26T09:09:03.454Z,62.35
2019-04-26T09:14:05.911Z,63.30
2019-04-26T09:19:08.375Z,63.24
2019-04-26T09:24:10.833Z,63.33
2019-04-26T09:29:16.176Z,64.05
2019-04-26T09:34:18.622Z,64.71
2019-04-26T09:39:21.167Z,65.28
2019-04-26T09:44:23.611Z,65.57
2019-04-26T09:49:28.964Z,65.39
2019-04-26T09:54:31.422Z,64.43
2019-04-26T09:59:36.325Z,64.02
2019-04-26T10:04:36.355Z,63.93
2019-04-26T10:09:38.830Z,62.39
2019-04-26T10:14:41.290Z,60.29
2019-04-26T10:19:43.734Z,59.08
2019-04-26T10:24:46.189Z,58.66
2019-04-26T10:29:48.675Z,58.49
2019-04-26T10:34:51.134Z,59.68
2019-04-26T10:39:53.596Z,59.58
2019-04-26T10:44:56.067Z,58.75
2019-04-26T10:49:59.308Z,58.61
2019-04-26T10:55:19.284Z,56.47
2019-04-26T11:00:21.762Z,56.56
2019-04-26T11:05:24.220Z,56.00
2019-04-26T11:10:26.693Z,57.62
2019-04-26T11:15:32.609Z,56.85
2019-04-26T11:20:31.720Z,59.40
2019-04-26T11:25:34.192Z,59.63
2019-04-26T11:30:36.648Z,60.25
2019-04-26T11:35:46.152Z,58.90
2019-04-26T11:41:04.892Z,61.71
2019-04-26T11:45:51.108Z,60.94
2019-04-26T11:50:53.717Z,60.28
2019-04-26T11:55:56.035Z,61.73
2019-04-26T12:00:58.480Z,61.22
2019-04-26T12:06:03.867Z,61.30
2019-04-26T12:11:17.772Z,60.24
2019-04-26T12:16:09.987Z,61.04
2019-04-26T12:21:11.271Z,60.50
2019-04-26T12:26:17.375Z,58.64
2019-04-26T12:31:16.190Z,59.32
2019-04-26T12:36:18.649Z,58.03
2019-04-26T12:41:39.243Z,54.75
2019-04-26T12:46:27.144Z,52.80
2019-04-26T12:51:29.091Z,54.77
2019-04-26T12:56:32.805Z,57.90
2019-04-26T13:01:34.009Z,59.91
2019-04-26T13:06:54.877Z,62.12
2019-04-26T13:12:03.364Z,61.34
2019-04-26T13:17:06.251Z,59.64
2019-04-26T13:22:12.594Z,59.09
2019-04-26T13:27:12.356Z,58.52
2019-04-26T13:32:13.685Z,59.49
2019-04-26T13:37:16.162Z,60.17
2019-04-26T13:42:18.744Z,59.90
2019-04-26T13:47:21.089Z,58.86
2019-04-26T13:52:23.558Z,57.25
2019-04-26T13:57:26.011Z,56.38
2019-04-26T14:02:28.492Z,56.89
2019-04-26T14:07:30.954Z,58.13
2019-04-26T14:12:33.399Z,58.82
2019-04-26T14:17:35.883Z,57.81
2019-04-26T14:22:53.203Z,57.88
2019-04-26T14:27:55.686Z,57.86
2019-04-26T14:32:58.882Z,57.73
2019-04-26T14:38:00.623Z,58.70
2019-04-26T14:43:06.953Z,58.33
2019-04-26T14:48:05.614Z,58.62
2019-04-26T14:53:08.008Z,60.09
2019-04-26T14:58:12.179Z,60.14
2019-04-26T15:03:12.925Z,60.08
2019-04-26T15:08:15.401Z,59.71
2019-04-26T15:13:20.777Z,60.38
2019-04-26T15:18:20.309Z,60.07
2019-04-26T15:23:25.202Z,58.37
2019-04-26T15:28:25.276Z,58.09
2019-04-26T15:33:27.744Z,58.67
2019-04-26T15:38:34.862Z,57.66
2019-04-26T15:43:42.837Z,57.81
2019-04-26T15:48:56.172Z,58.68
2019-04-26T15:53:58.636Z,58.87
2019-04-26T15:59:02.536Z,59.39
2019-04-26T16:04:06.370Z,59.86
2019-04-26T16:09:06.017Z,60.69
2019-04-26T16:14:08.485Z,60.79
2019-04-26T16:19:10.934Z,61.13
2019-04-26T16:24:13.521Z,61.96
2019-04-26T16:29:18.290Z,61.61
2019-04-26T16:34:21.387Z,61.90
2019-04-26T16:39:28.444Z,61.98
2019-04-26T16:44:29.936Z,61.85
2019-04-26T16:49:28.866Z,61.75
2019-04-26T16:54:33.559Z,61.75
2019-04-26T16:59:33.818Z,60.91
2019-04-26T17:04:37.178Z,61.09
2019-04-26T17:09:56.966Z,61.00
2019-04-26T17:14:47.744Z,62.42
2019-04-26T17:19:44.536Z,62.73
2019-04-26T17:24:49.517Z,64.00
2019-04-26T17:29:52.694Z,63.17
2019-04-26T17:34:54.702Z,64.23
2019-04-26T17:39:56.987Z,64.56
2019-04-26T17:45:03.818Z,64.84
2019-04-26T17:50:06.169Z,64.90
2019-04-26T17:55:07.816Z,65.20
2019-04-26T18:00:09.880Z,65.92
2019-04-26T18:05:10.854Z,66.08
2019-04-26T18:10:11.981Z,66.94
2019-04-26T18:15:19.139Z,67.54
2019-04-26T18:20:33.530Z,68.28
2019-04-26T18:25:34.547Z,68.61
2019-04-26T18:30:40.404Z,68.94
2019-04-26T18:35:41.805Z,68.98
2019-04-26T18:40:57.130Z,69.23
2019-04-26T18:45:44.537Z,69.08
2019-04-26T18:50:46.937Z,69.69
2019-04-26T18:55:53.517Z,69.83
2019-04-26T19:00:57.357Z,70.17
2019-04-26T19:05:58.441Z,69.96
2019-04-26T19:11:03.074Z,70.15
2019-04-26T19:16:10.584Z,70.27
2019-04-26T19:21:32.347Z,70.07
2019-04-26T19:26:34.896Z,70.41
2019-04-26T19:31:33.644Z,71.12
2019-04-26T19:36:36.123Z,71.04
2019-04-26T19:41:38.634Z,71.45
2019-04-26T19:46:44.347Z,71.54
2019-04-26T19:52:03.758Z,71.73
2019-04-26T19:57:06.995Z,71.94
2019-04-26T20:02:09.487Z,72.10
2019-04-26T20:07:11.979Z,72.36
2019-04-26T20:12:14.486Z,72.70
2019-04-26T20:17:20.059Z,73.07
2019-04-26T20:22:22.131Z,73.51
2019-04-26T20:27:25.241Z,73.56
2019-04-26T20:32:29.976Z,73.85
2019-04-26T20:37:32.474Z,74.48
2019-04-26T20:42:34.952Z,74.57
2019-04-26T20:47:37.440Z,74.87
2019-04-26T20:52:41.434Z,75.21
2019-04-26T20:57:44.594Z,75.17
2019-04-26T21:02:44.916Z,75.23
2019-04-26T21:07:49.864Z,75.18
2019-04-26T21:12:52.157Z,74.69
2019-04-26T21:17:52.402Z,75.38
2019-04-26T21:22:57.693Z,76.19
2019-04-26T21:28:07.916Z,75.78
2019-04-26T21:33:13.010Z,75.49
2019-04-26T21:38:33.362Z,75.08
2019-04-26T21:43:38.274Z,75.10
2019-04-26T21:48:41.283Z,75.51
2019-04-26T21:53:42.193Z,75.35
2019-04-26T21:58:43.595Z,75.46
2019-04-26T22:03:53.614Z,75.61
2019-04-26T22:08:47.439Z,75.76
2019-04-26T22:13:59.106Z,76.08
2019-04-26T22:19:01.608Z,75.68
2019-04-26T22:24:23.337Z,76.19
2019-04-26T22:29:24.847Z,76.17
2019-04-26T22:34:27.321Z,76.02
2019-04-26T22:39:32.559Z,76.17
2019-04-26T22:44:44.365Z,75.54
2019-04-26T22:49:46.842Z,75.49
2019-04-26T22:54:49.322Z,75.62
2019-04-26T22:59:53.540Z,75.59
2019-04-26T23:04:55.895Z,75.41
2019-04-26T23:09:56.726Z,75.81
2019-04-26T23:15:17.098Z,75.57
2019-04-26T23:20:23.358Z,75.81
2019-04-26T23:25:27.787Z,75.58
2019-04-26T23:30:27.687Z,75.79
2019-04-26T23:35:29.960Z,75.84
2019-04-26T23:40:33.439Z,76.25
2019-04-26T23:45:34.868Z,76.15
2019-04-26T23:50:37.336Z,76.05
2019-04-26T23:55:42.540Z,76.26
